Aeroporto :
LOGIN :

Iscrizione | Disclaimer

   EN    FR    IT 

 










Sommario :    VFR   VFR Marginale   IFR   IFR Intensivo   IFR Molto Intensivo
Visibilità : 
Base nubi : 
>= 8 km
>= 3000ft
5 / 8 km
1000 / 3000 ft
1500m / 5 km
500 / 1000 ft
800 / 1500m
200 / 500 ft
< 800m
< 200 ft
Simboli :   Temporali  Nebbia  Neve Forte  Precipitazioni Forti  Vento > 20 kt
SIGMETs :   Varie  Temporali  Ghiacco  Turbolenza  Onda orograficha  Ceneri Vulcaniche






- Altitudine del aeroporto : 1768 ft


LEHC - Huesca Pirineos

ULTIMO METAR :
  • 121300Z 27017KT 240V300 9999 SCT035 12/05 Q1010

METARs OBSOLETI :
  • 121230Z 28018KT 250V310 9999 FEW040 11/05 Q1010
  • 121200Z 27019KT 230V290 9999 FEW040 11/05 Q1010
  • 121130Z 27018KT 240V300 9999 FEW040 10/05 Q1011
  • 121100Z 27019KT 240V310 9999 FEW040 10/05 Q1011
  • 121030Z 26019KT 230V290 9999 FEW040 09/05 Q1012

TAF TAF LEHC
Valido dal 12 a 09 ore il 13 a 09 ore UTC


120800Z 1209/1309 29012KT 9999 SCT040 TX12/1214Z TN05/1306Z
BECMG 1209/1211 29020G30KT
BECMG 1216/1218 28010KT
BECMG 1300/1302 VRB03KT
PROB40
TEMPO 1301/1309 3000 RA BKN030



MetMap, La meteo Aeronautica in un colpo d'occhio ! - Copyright ORBIFLY Dicembre 2007 - Disclaimer

ORBIFLY MET'MAP TEAM :

Programmazione e sviluppo : Alexandra Zaïnal
Concezione e sviluppo : Baudouin d'Aumeries
Co-Programmazione e sviluppo : Marc-Olivier Méhu
Supporto tecnico e logistico : Manuel Goepfert
Aiuto per la traduzione : Arnaldo La Scala

Contatto : metmap@orbifly.com




FONTI E CREDITI :

   NOAA